createdAt,value
2018-12-06T00:00:18.095Z,98500.36
2018-12-06T00:02:46.627Z,98503.09
2018-12-06T00:05:15.147Z,98515.13
2018-12-06T00:07:54.843Z,98520.22
2018-12-06T00:10:23.467Z,98514.17
2018-12-06T00:12:53.638Z,98504.72
2018-12-06T00:15:28.060Z,98517.64
2018-12-06T00:17:57.075Z,98513.72
2018-12-06T00:20:25.571Z,98510.19
2018-12-06T00:22:54.111Z,98513.56
2018-12-06T00:25:22.762Z,98512.02
2018-12-06T00:27:51.371Z,98500.25
2018-12-06T00:30:31.154Z,98498.64
2018-12-06T00:32:59.759Z,98516.09
2018-12-06T00:35:28.269Z,98510.79
2018-12-06T00:37:57.152Z,98517.47
2018-12-06T00:40:25.758Z,98509.95
2018-12-06T00:42:54.251Z,98521.49
2018-12-06T00:45:22.859Z,98518.22
2018-12-06T00:47:51.391Z,98506.33
2018-12-06T00:50:20.071Z,98505.37
2018-12-06T00:52:48.611Z,98493.61
2018-12-06T00:55:18.419Z,98487.05
2018-12-06T00:57:47.049Z,98466.39
2018-12-06T01:00:15.962Z,98461.31
2018-12-06T01:02:44.511Z,98463.69
2018-12-06T01:05:13.177Z,98458.27
2018-12-06T01:07:41.683Z,98453.00
2018-12-06T01:10:10.571Z,98466.23
2018-12-06T01:12:39.175Z,98473.59
2018-12-06T01:15:08.558Z,98480.66
2018-12-06T01:17:37.054Z,98482.11
2018-12-06T01:20:06.837Z,98478.09
2018-12-06T01:22:35.370Z,98481.27
2018-12-06T01:25:04.129Z,98482.36
2018-12-06T01:27:32.839Z,98479.11
2018-12-06T01:30:01.420Z,98474.17
2018-12-06T01:32:30.015Z,98473.49
2018-12-06T01:34:58.582Z,98460.80
2018-12-06T01:37:27.290Z,98463.95
2018-12-06T01:39:55.815Z,98468.32
2018-12-06T01:42:25.096Z,98476.86
2018-12-06T01:44:53.576Z,98480.21
2018-12-06T01:47:22.115Z,98484.67
2018-12-06T01:49:50.599Z,98476.58
2018-12-06T01:52:19.160Z,98487.02
2018-12-06T01:54:47.728Z,98479.47
2018-12-06T01:57:16.795Z,98490.84
2018-12-06T01:59:45.406Z,98485.03
2018-12-06T02:02:14.175Z,98489.37
2018-12-06T02:04:42.909Z,98484.06
2018-12-06T02:07:11.400Z,98479.08
2018-12-06T02:09:40.040Z,98475.80
2018-12-06T02:12:09.934Z,98476.13
2018-12-06T02:14:39.504Z,98466.16
2018-12-06T02:17:08.180Z,98455.47
2018-12-06T02:19:36.680Z,98450.08
2018-12-06T02:22:05.194Z,98450.08
2018-12-06T02:24:33.691Z,98442.08
2018-12-06T02:27:02.994Z,98437.06
2018-12-06T02:29:36.690Z,98435.30
2018-12-06T02:32:05.303Z,98447.44
2018-12-06T02:34:33.961Z,98434.72
2018-12-06T02:37:02.482Z,98432.63
2018-12-06T02:39:31.008Z,98424.13
2018-12-06T02:41:59.632Z,98423.67
2018-12-06T02:44:29.143Z,98421.88
2018-12-06T02:46:57.708Z,98413.63
2018-12-06T02:49:26.279Z,98424.34
2018-12-06T02:51:54.855Z,98428.78
2018-12-06T02:54:23.429Z,98401.32
2018-12-06T02:56:51.969Z,98389.95
2018-12-06T02:59:20.446Z,98400.41
2018-12-06T03:01:49.045Z,98390.23
2018-12-06T03:04:17.611Z,98394.41
2018-12-06T03:06:46.293Z,98389.59
2018-12-06T03:09:14.827Z,98381.51
2018-12-06T03:11:43.613Z,98378.14
2018-12-06T03:14:12.399Z,98383.48
2018-12-06T03:16:40.893Z,98378.83
2018-12-06T03:19:09.555Z,98371.20
2018-12-06T03:21:38.082Z,98375.20
2018-12-06T03:24:07.187Z,98363.36
2018-12-06T03:26:35.844Z,98360.88
2018-12-06T03:29:04.436Z,98357.16
2018-12-06T03:31:33.361Z,98351.16
2018-12-06T03:34:02.251Z,98353.28
2018-12-06T03:36:30.904Z,98365.87
2018-12-06T03:38:59.479Z,98360.36
2018-12-06T03:41:28.094Z,98359.19
2018-12-06T03:43:56.763Z,98354.89
2018-12-06T03:46:25.259Z,98360.89
2018-12-06T03:48:54.508Z,98364.99
2018-12-06T03:51:23.172Z,98359.59
2018-12-06T03:53:51.662Z,98361.68
2018-12-06T03:56:20.321Z,98348.14
2018-12-06T03:58:48.833Z,98342.39
2018-12-06T04:01:17.330Z,98342.78
2018-12-06T04:03:46.019Z,98339.94
2018-12-06T04:06:14.742Z,98349.32
2018-12-06T04:08:43.264Z,98341.95
2018-12-06T04:11:11.915Z,98345.77
2018-12-06T04:13:40.418Z,98360.28
2018-12-06T04:16:08.970Z,98361.64
2018-12-06T04:18:37.628Z,98359.53
2018-12-06T04:21:06.279Z,98350.63
2018-12-06T04:23:34.754Z,98357.41
2018-12-06T04:26:03.315Z,98351.36
2018-12-06T04:28:31.872Z,98363.97
2018-12-06T04:31:00.491Z,98370.32
2018-12-06T04:33:29.075Z,98367.91
2018-12-06T04:35:57.690Z,98372.51
2018-12-06T04:38:26.304Z,98368.92
2018-12-06T04:40:55.724Z,98375.12
2018-12-06T04:43:24.253Z,98371.41
2018-12-06T04:45:54.310Z,98375.12
2018-12-06T04:48:23.231Z,98378.75
2018-12-06T04:50:52.931Z,98402.55
2018-12-06T04:53:21.444Z,98403.02
2018-12-06T04:55:49.984Z,98398.53
2018-12-06T04:58:18.467Z,98396.47
2018-12-06T05:00:47.053Z,98408.03
2018-12-06T05:03:15.648Z,98405.40
2018-12-06T05:05:44.799Z,98407.00
2018-12-06T05:08:13.406Z,98405.75
2018-12-06T05:10:42.024Z,98406.77
2018-12-06T05:13:10.766Z,98402.19
2018-12-06T05:15:39.479Z,98399.42
2018-12-06T05:18:08.058Z,98409.19
2018-12-06T05:20:36.575Z,98415.51
2018-12-06T05:23:05.083Z,98415.67
2018-12-06T05:25:33.638Z,98409.25
2018-12-06T05:28:03.016Z,98410.22
2018-12-06T05:30:31.552Z,98416.83
2018-12-06T05:33:00.097Z,98421.71
2018-12-06T05:35:29.452Z,98424.41
2018-12-06T05:37:57.929Z,98428.33
2018-12-06T05:40:26.500Z,98427.20
2018-12-06T05:42:55.140Z,98420.20
2018-12-06T05:45:23.710Z,98410.83
2018-12-06T05:47:52.260Z,98411.02
2018-12-06T05:50:21.012Z,98404.81
2018-12-06T05:52:50.487Z,98415.67
2018-12-06T05:55:19.753Z,98417.22
2018-12-06T05:57:49.264Z,98419.84
2018-12-06T06:00:19.422Z,98417.28
2018-12-06T06:02:49.602Z,98412.78
2018-12-06T06:05:20.027Z,98418.44
2018-12-06T06:07:49.343Z,98413.48
2018-12-06T06:10:19.881Z,98413.72
2018-12-06T06:12:49.640Z,98406.84
2018-12-06T06:15:18.458Z,98407.94
2018-12-06T06:17:47.405Z,98406.23
2018-12-06T06:20:16.431Z,98408.93
2018-12-06T06:22:45.810Z,98395.38
2018-12-06T06:25:14.811Z,98395.51
2018-12-06T06:27:43.961Z,98399.39
2018-12-06T06:30:13.132Z,98389.98
2018-12-06T06:32:41.752Z,98385.69
2018-12-06T06:35:10.487Z,98382.84
2018-12-06T06:37:39.558Z,98381.20
2018-12-06T06:40:08.733Z,98383.86
2018-12-06T06:42:37.390Z,98383.88
2018-12-06T06:45:07.958Z,98385.83
2018-12-06T06:47:36.523Z,98393.92
2018-12-06T06:50:07.056Z,98400.09
2018-12-06T06:52:36.191Z,98404.14
2018-12-06T06:55:05.638Z,98403.62
2018-12-06T06:57:34.800Z,98412.81
2018-12-06T07:00:04.571Z,98410.48
2018-12-06T07:02:33.207Z,98405.16
2018-12-06T07:05:02.183Z,98416.88
2018-12-06T07:07:31.043Z,98421.90
2018-12-06T07:10:02.026Z,98427.07
2018-12-06T07:12:30.544Z,98429.38
2018-12-06T07:14:59.190Z,98427.84
2018-12-06T07:17:27.711Z,98437.54
2018-12-06T07:19:56.206Z,98439.44
2018-12-06T07:22:24.772Z,98443.97
2018-12-06T07:24:53.355Z,98454.66
2018-12-06T07:27:21.922Z,98454.35
2018-12-06T07:29:50.640Z,98450.55
2018-12-06T07:32:19.190Z,98464.78
2018-12-06T07:34:47.883Z,98460.44
2018-12-06T07:37:16.471Z,98464.75
2018-12-06T07:39:45.683Z,98472.34
2018-12-06T07:42:14.343Z,98472.09
2018-12-06T07:44:43.003Z,98475.99
2018-12-06T07:47:13.799Z,98477.70
2018-12-06T07:49:42.435Z,98484.49
2018-12-06T07:52:10.995Z,98484.16
2018-12-06T07:54:39.518Z,98488.28
2018-12-06T07:57:08.310Z,98484.09
2018-12-06T07:59:37.642Z,98484.27
2018-12-06T08:02:06.920Z,98491.33
2018-12-06T08:04:36.006Z,98491.83
2018-12-06T08:07:04.529Z,98492.64
2018-12-06T08:09:33.185Z,98492.23
2018-12-06T08:12:01.794Z,98497.23
2018-12-06T08:14:30.414Z,98498.08
2018-12-06T08:16:59.678Z,98492.78
2018-12-06T08:19:29.003Z,98488.66
2018-12-06T08:21:57.526Z,98487.02
2018-12-06T08:24:26.286Z,98483.14
2018-12-06T08:26:54.770Z,98491.58
2018-12-06T08:29:23.390Z,98497.20
2018-12-06T08:31:52.019Z,98500.63
2018-12-06T08:34:20.658Z,98488.55
2018-12-06T08:36:49.254Z,98499.98
2018-12-06T08:39:17.768Z,98499.94
2018-12-06T08:41:46.372Z,98501.02
2018-12-06T08:44:21.115Z,98517.79
2018-12-06T08:46:45.459Z,98513.95
2018-12-06T08:49:14.051Z,98518.41
2018-12-06T08:51:42.569Z,98513.97
2018-12-06T08:54:11.261Z,98518.07
2018-12-06T08:56:39.894Z,98520.19
2018-12-06T08:59:09.235Z,98521.09
2018-12-06T09:01:37.736Z,98519.78
2018-12-06T09:04:06.416Z,98523.74
2018-12-06T09:06:35.003Z,98523.59
2018-12-06T09:09:04.619Z,98522.32
2018-12-06T09:11:33.210Z,98525.09
2018-12-06T09:14:01.744Z,98532.94
2018-12-06T09:16:30.899Z,98531.77
2018-12-06T09:18:59.414Z,98527.54
2018-12-06T09:21:28.063Z,98535.17
2018-12-06T09:23:56.599Z,98542.17
2018-12-06T09:26:26.640Z,98535.96
2018-12-06T09:28:55.289Z,98544.87
2018-12-06T09:31:24.166Z,98551.52
2018-12-06T09:34:02.736Z,98552.03
2018-12-06T09:36:31.639Z,98548.42
2018-12-06T09:39:00.867Z,98552.54
2018-12-06T09:41:29.477Z,98567.66
2018-12-06T09:43:58.054Z,98556.81
2018-12-06T09:46:28.882Z,98551.88
2018-12-06T09:48:58.167Z,98550.17
2018-12-06T09:51:26.791Z,98551.63
2018-12-06T09:53:55.404Z,98549.00
2018-12-06T09:56:23.967Z,98542.39
2018-12-06T09:58:52.645Z,98544.00
2018-12-06T10:01:21.424Z,98538.56
2018-12-06T10:03:50.007Z,98542.23
2018-12-06T10:06:18.692Z,98544.63
2018-12-06T10:08:48.783Z,98540.86
2018-12-06T10:11:17.982Z,98547.96
2018-12-06T10:13:46.690Z,98555.98
2018-12-06T10:16:16.670Z,98557.59
2018-12-06T10:18:45.219Z,98550.38
2018-12-06T10:21:13.733Z,98545.02
2018-12-06T10:23:42.481Z,98536.65
2018-12-06T10:26:11.023Z,98536.97
2018-12-06T10:28:39.576Z,98541.17
2018-12-06T10:31:08.264Z,98546.48
2018-12-06T10:33:36.915Z,98550.55
2018-12-06T10:36:05.471Z,98551.30
2018-12-06T10:38:33.987Z,98552.95
2018-12-06T10:41:02.954Z,98544.70
2018-12-06T10:43:31.528Z,98539.18
2018-12-06T10:46:00.097Z,98535.66
2018-12-06T10:48:28.842Z,98533.52
2018-12-06T10:51:08.923Z,98533.06
2018-12-06T10:53:37.433Z,98529.57
2018-12-06T10:56:06.020Z,98520.59
2018-12-06T10:58:34.547Z,98512.99
2018-12-06T11:01:09.303Z,98513.39
2018-12-06T11:03:42.997Z,98509.08
2018-12-06T11:06:11.672Z,98499.20
2018-12-06T11:08:40.322Z,98493.70
2018-12-06T11:11:08.950Z,98496.20
2018-12-06T11:13:37.528Z,98485.73
2018-12-06T11:16:06.091Z,98476.55
2018-12-06T11:18:35.306Z,98470.09
2018-12-06T11:21:04.382Z,98470.58
2018-12-06T11:23:33.524Z,98462.56
2018-12-06T11:26:02.047Z,98453.86
2018-12-06T11:28:30.594Z,98444.11
2018-12-06T11:30:59.719Z,98441.17
2018-12-06T11:33:28.411Z,98451.88
2018-12-06T11:35:57.198Z,98455.70
2018-12-06T11:38:25.770Z,98460.07
2018-12-06T11:40:54.958Z,98454.52
2018-12-06T11:43:23.542Z,98466.91
2018-12-06T11:45:52.767Z,98452.86
2018-12-06T11:48:26.860Z,98460.59
2018-12-06T11:50:51.994Z,98467.45
2018-12-06T11:53:20.610Z,98471.59
2018-12-06T11:55:49.126Z,98483.27
2018-12-06T11:58:17.757Z,98484.29
2018-12-06T12:00:46.402Z,98491.27
2018-12-06T12:03:15.026Z,98491.71
2018-12-06T12:05:43.623Z,98491.94
2018-12-06T12:08:12.195Z,98497.50
2018-12-06T12:10:40.692Z,98488.87
2018-12-06T12:13:09.286Z,98485.22
2018-12-06T12:15:37.835Z,98492.98
2018-12-06T12:18:06.359Z,98486.10
2018-12-06T12:20:34.844Z,98482.69
2018-12-06T12:23:03.353Z,98475.24
2018-12-06T12:25:31.854Z,98471.09
2018-12-06T12:28:01.994Z,98470.94
2018-12-06T12:30:30.475Z,98477.43
2018-12-06T12:32:59.014Z,98474.14
2018-12-06T12:35:27.600Z,98468.55
2018-12-06T12:37:56.187Z,98470.78
2018-12-06T12:40:24.679Z,98469.91
2018-12-06T12:42:53.249Z,98474.95
2018-12-06T12:45:21.855Z,98473.66
2018-12-06T12:47:50.451Z,98472.97
2018-12-06T12:50:19.135Z,98461.19
2018-12-06T12:52:47.710Z,98472.06
2018-12-06T12:55:16.282Z,98471.13
2018-12-06T12:57:45.883Z,98471.28
2018-12-06T13:00:14.450Z,98470.96
2018-12-06T13:02:43.036Z,98471.67
2018-12-06T13:05:12.167Z,98482.38
2018-12-06T13:07:40.683Z,98479.10
2018-12-06T13:10:09.375Z,98484.06
2018-12-06T13:12:37.905Z,98493.35
2018-12-06T13:15:07.549Z,98493.17
2018-12-06T13:17:36.137Z,98489.93
2018-12-06T13:20:05.773Z,98489.16
2018-12-06T13:22:34.406Z,98486.28
2018-12-06T13:25:02.903Z,98484.33
2018-12-06T13:27:32.277Z,98478.77
2018-12-06T13:30:00.820Z,98476.09
2018-12-06T13:32:29.445Z,98473.39
2018-12-06T13:34:57.946Z,98477.41
2018-12-06T13:37:26.519Z,98462.89
2018-12-06T13:39:55.079Z,98451.48
2018-12-06T13:42:23.950Z,98459.48
2018-12-06T13:44:52.691Z,98453.41
2018-12-06T13:47:21.204Z,98456.44
2018-12-06T13:49:49.705Z,98460.42
2018-12-06T13:52:18.214Z,98465.69
2018-12-06T13:54:46.703Z,98472.73
2018-12-06T13:57:15.209Z,98469.29
2018-12-06T13:59:43.917Z,98477.45
2018-12-06T14:02:12.425Z,98469.94
2018-12-06T14:04:40.944Z,98469.58
2018-12-06T14:07:09.507Z,98468.31
2018-12-06T14:09:38.451Z,98468.26
2018-12-06T14:12:06.979Z,98455.38
2018-12-06T14:14:35.648Z,98453.60
2018-12-06T14:17:04.463Z,98465.83
2018-12-06T14:19:34.591Z,98464.49
2018-12-06T14:22:03.101Z,98466.69
2018-12-06T14:24:31.617Z,98478.66
2018-12-06T14:27:00.356Z,98475.34
2018-12-06T14:29:29.770Z,98484.97
2018-12-06T14:31:58.541Z,98488.02
2018-12-06T14:34:27.758Z,98491.73
2018-12-06T14:37:02.079Z,98491.92
2018-12-06T14:39:26.813Z,98495.95
2018-12-06T14:41:55.466Z,98491.45
2018-12-06T14:44:24.195Z,98490.81
2018-12-06T14:46:52.722Z,98496.61
2018-12-06T14:49:21.283Z,98495.95
2018-12-06T14:51:49.907Z,98491.45
2018-12-06T14:54:18.535Z,98483.20
2018-12-06T14:56:47.145Z,98473.22
2018-12-06T14:59:15.794Z,98476.88
2018-12-06T15:01:44.539Z,98475.29
2018-12-06T15:04:13.062Z,98485.87
2018-12-06T15:06:41.572Z,98495.12
2018-12-06T15:09:10.189Z,98505.58
2018-12-06T15:11:38.892Z,98513.90
2018-12-06T15:14:08.185Z,98528.23
2018-12-06T15:16:36.775Z,98527.34
2018-12-06T15:19:05.336Z,98536.81
2018-12-06T15:21:33.863Z,98531.75
2018-12-06T15:24:02.464Z,98541.05
2018-12-06T15:26:30.950Z,98545.14
2018-12-06T15:29:00.238Z,98553.25
2018-12-06T15:31:28.888Z,98540.39
2018-12-06T15:33:57.388Z,98537.01
2018-12-06T15:36:25.875Z,98541.50
2018-12-06T15:38:55.543Z,98541.35
2018-12-06T15:41:24.095Z,98548.94
2018-12-06T15:43:52.703Z,98548.50
2018-12-06T15:46:21.191Z,98536.61
2018-12-06T15:48:49.704Z,98538.20
2018-12-06T15:51:18.275Z,98536.14
2018-12-06T15:53:46.847Z,98538.86
2018-12-06T15:56:15.443Z,98537.08
2018-12-06T15:58:43.957Z,98537.91
2018-12-06T16:01:12.467Z,98543.19
2018-12-06T16:03:41.009Z,98554.47
2018-12-06T16:06:09.486Z,98553.83
2018-12-06T16:08:37.984Z,98546.22
2018-12-06T16:11:06.547Z,98549.75
2018-12-06T16:13:35.115Z,98552.31
2018-12-06T16:16:03.755Z,98553.67
2018-12-06T16:18:32.439Z,98562.81
2018-12-06T16:21:00.953Z,98563.31
2018-12-06T16:23:29.507Z,98560.74
2018-12-06T16:25:58.656Z,98559.64
2018-12-06T16:28:27.159Z,98571.25
2018-12-06T16:30:55.689Z,98563.97
2018-12-06T16:33:24.906Z,98557.94
2018-12-06T16:35:53.460Z,98559.83
2018-12-06T16:38:21.972Z,98567.37
2018-12-06T16:40:50.764Z,98568.01
2018-12-06T16:43:19.305Z,98578.52
2018-12-06T16:45:47.806Z,98567.30
2018-12-06T16:48:17.780Z,98573.38
2018-12-06T16:50:46.982Z,98569.23
2018-12-06T16:53:16.267Z,98575.09
2018-12-06T16:55:45.281Z,98569.13
2018-12-06T16:58:15.503Z,98574.44
2018-12-06T17:00:44.270Z,98577.13
2018-12-06T17:03:12.828Z,98568.50
2018-12-06T17:05:41.423Z,98574.09
2018-12-06T17:08:09.910Z,98580.51
2018-12-06T17:10:38.435Z,98570.12
2018-12-06T17:13:10.484Z,98581.56
2018-12-06T17:15:39.129Z,98584.63
2018-12-06T17:18:08.205Z,98598.00
2018-12-06T17:20:36.838Z,98591.44
2018-12-06T17:23:06.780Z,98586.86
2018-12-06T17:25:35.390Z,98588.31
2018-12-06T17:28:04.079Z,98590.72
2018-12-06T17:30:32.661Z,98590.86
2018-12-06T17:33:01.138Z,98592.73
2018-12-06T17:35:29.655Z,98591.69
2018-12-06T17:37:58.215Z,98590.75
2018-12-06T17:40:26.814Z,98592.78
2018-12-06T17:42:55.319Z,98587.66
2018-12-06T17:45:23.862Z,98580.61
2018-12-06T17:47:52.477Z,98588.31
2018-12-06T17:50:21.709Z,98586.38
2018-12-06T17:52:50.253Z,98578.05
2018-12-06T17:55:19.682Z,98576.19
2018-12-06T17:57:48.355Z,98573.97
2018-12-06T18:00:17.013Z,98577.08
2018-12-06T18:02:45.561Z,98588.14
2018-12-06T18:06:08.211Z,98588.78
2018-12-06T18:08:36.815Z,98592.13
2018-12-06T18:11:05.351Z,98588.30
2018-12-06T18:13:34.035Z,98577.69
2018-12-06T18:16:02.587Z,98582.19
2018-12-06T18:18:31.260Z,98581.82
2018-12-06T18:21:00.339Z,98575.42
2018-12-06T18:23:28.894Z,98579.48
2018-12-06T18:25:57.411Z,98580.38
2018-12-06T18:28:26.482Z,98583.42
2018-12-06T18:30:55.001Z,98582.71
2018-12-06T18:33:23.640Z,98577.89
2018-12-06T18:35:52.199Z,98581.77
2018-12-06T18:38:20.900Z,98578.55
2018-12-06T18:40:49.489Z,98577.89
2018-12-06T18:43:18.003Z,98572.05
2018-12-06T18:45:46.552Z,98562.09
2018-12-06T18:48:15.264Z,98566.59
2018-12-06T18:50:43.843Z,98565.14
2018-12-06T18:53:12.370Z,98580.29
2018-12-06T18:55:40.917Z,98567.93
2018-12-06T18:58:09.568Z,98571.16
2018-12-06T19:00:38.155Z,98571.25
2018-12-06T19:03:06.746Z,98571.55
2018-12-06T19:05:35.269Z,98573.09
2018-12-06T19:08:03.779Z,98576.00
2018-12-06T19:10:32.487Z,98578.59
2018-12-06T19:13:01.763Z,98576.55
2018-12-06T19:15:30.335Z,98582.92
2018-12-06T19:17:58.831Z,98583.34
2018-12-06T19:20:27.651Z,98585.05
2018-12-06T19:22:56.429Z,98580.20
2018-12-06T19:25:24.956Z,98591.09
2018-12-06T19:27:53.511Z,98588.94
2018-12-06T19:30:22.795Z,98585.41
2018-12-06T19:32:57.808Z,98583.60
2018-12-06T19:35:23.076Z,98583.10
2018-12-06T19:37:52.177Z,98584.23
2018-12-06T19:40:20.976Z,98578.86
2018-12-06T19:42:50.609Z,98580.36
2018-12-06T19:45:19.653Z,98572.23
2018-12-06T19:47:48.654Z,98572.91
2018-12-06T19:50:17.991Z,98573.03
2018-12-06T19:52:47.142Z,98572.91
2018-12-06T19:55:16.871Z,98566.37
2018-12-06T19:57:46.444Z,98554.06
2018-12-06T20:00:15.431Z,98551.37
2018-12-06T20:02:45.527Z,98550.78
2018-12-06T20:05:14.878Z,98561.69
2018-12-06T20:07:44.238Z,98565.75
2018-12-06T20:10:14.051Z,98564.27
2018-12-06T20:12:42.671Z,98550.23
2018-12-06T20:15:11.315Z,98556.83
2018-12-06T20:17:40.114Z,98541.45
2018-12-06T20:20:08.994Z,98540.32
2018-12-06T20:22:37.526Z,98531.48
2018-12-06T20:25:06.608Z,98532.57
2018-12-06T20:27:35.115Z,98532.88
2018-12-06T20:30:04.570Z,98529.23
2018-12-06T20:32:34.152Z,98531.58
2018-12-06T20:35:03.603Z,98530.33
2018-12-06T20:37:32.678Z,98529.25
2018-12-06T20:40:01.232Z,98533.05
2018-12-06T20:42:32.718Z,98524.53
2018-12-06T20:45:02.610Z,98527.61
2018-12-06T20:47:31.599Z,98513.30
2018-12-06T20:50:00.208Z,98517.25
2018-12-06T20:52:30.284Z,98520.07
2018-12-06T20:54:58.839Z,98526.17
2018-12-06T20:57:27.447Z,98527.77
2018-12-06T20:59:57.259Z,98532.57
2018-12-06T21:02:27.194Z,98525.70
2018-12-06T21:04:56.763Z,98524.53
2018-12-06T21:07:27.449Z,98522.96
2018-12-06T21:09:57.712Z,98519.08
2018-12-06T21:12:27.741Z,98517.04
2018-12-06T21:14:57.711Z,98515.27
2018-12-06T21:17:27.364Z,98519.12
2018-12-06T21:19:56.913Z,98519.12
2018-12-06T21:22:27.467Z,98515.55
2018-12-06T21:24:56.100Z,98507.89
2018-12-06T21:27:24.843Z,98518.47
2018-12-06T21:29:54.897Z,98513.73
2018-12-06T21:32:24.171Z,98511.29
2018-12-06T21:34:52.797Z,98517.02
2018-12-06T21:37:22.413Z,98519.70
2018-12-06T21:39:50.974Z,98514.06
2018-12-06T21:42:20.629Z,98520.45
2018-12-06T21:44:53.075Z,98512.66
2018-12-06T21:47:25.794Z,98507.63
2018-12-06T21:49:55.651Z,98510.86
2018-12-06T21:52:24.558Z,98508.98
2018-12-06T21:54:55.639Z,98506.73
2018-12-06T21:57:24.989Z,98504.05
2018-12-06T21:59:53.562Z,98513.13
2018-12-06T22:02:25.296Z,98506.67
2018-12-06T22:04:54.602Z,98504.84
2018-12-06T22:07:23.274Z,98500.91
2018-12-06T22:09:51.774Z,98501.75
2018-12-06T22:12:20.288Z,98496.62
2018-12-06T22:14:48.871Z,98498.37
2018-12-06T22:17:17.352Z,98497.56
2018-12-06T22:19:45.955Z,98497.94
2018-12-06T22:22:14.460Z,98490.14
2018-12-06T22:24:44.999Z,98490.65
2018-12-06T22:27:13.510Z,98489.76
2018-12-06T22:29:42.648Z,98493.69
2018-12-06T22:32:12.363Z,98493.48
2018-12-06T22:34:41.622Z,98493.42
2018-12-06T22:37:11.303Z,98496.58
2018-12-06T22:39:40.212Z,98492.91
2018-12-06T22:42:10.509Z,98498.64
2018-12-06T22:44:40.165Z,98491.97
2018-12-06T22:47:08.906Z,98493.76
2018-12-06T22:49:39.152Z,98488.54
2018-12-06T22:52:08.256Z,98489.20
2018-12-06T22:54:36.797Z,98481.02
2018-12-06T22:57:05.418Z,98482.16
2018-12-06T22:59:34.121Z,98481.30
2018-12-06T23:02:02.664Z,98473.22
2018-12-06T23:04:33.982Z,98478.89
2018-12-06T23:07:02.459Z,98485.00
2018-12-06T23:09:31.089Z,98486.75
2018-12-06T23:11:59.589Z,98479.94
2018-12-06T23:14:28.177Z,98484.49
2018-12-06T23:16:56.664Z,98474.98
2018-12-06T23:19:25.279Z,98480.48
2018-12-06T23:21:53.828Z,98479.13
2018-12-06T23:24:22.470Z,98476.59
2018-12-06T23:26:51.002Z,98469.80
2018-12-06T23:29:19.506Z,98463.81
2018-12-06T23:31:48.816Z,98463.81
2018-12-06T23:34:17.452Z,98465.31
2018-12-06T23:36:45.986Z,98458.36
2018-12-06T23:39:14.575Z,98458.59
2018-12-06T23:41:43.143Z,98459.77
2018-12-06T23:44:11.694Z,98453.37
2018-12-06T23:46:40.236Z,98447.78
2018-12-06T23:49:08.779Z,98439.73
2018-12-06T23:51:38.943Z,98442.70
2018-12-06T23:54:07.452Z,98433.15
2018-12-06T23:56:36.567Z,98433.35
2018-12-06T23:59:05.219Z,98431.45
